Terminal Aerodrome Forecast
Issued by NWS Portland, OR

Current Version | Previous Version | Text Only | Print | Product List | Glossary On
Versions: 1 2 3 4 5 6 7 8 9 10 11 12 13 14 15 16 17 18 19 20 21 22 23 24 25 26 27 28 29 30 31
000
FTUS46 KPQR 021752 AAA
TAFPDX
TAF AMD
KPDX 021752Z 0218/0318 15003KT P6SM -SHRA SCT040 OVC070
     FM022200 14010KT P6SM -RA SCT020 OVC035
     FM030500 20007KT P6SM -SHRA BKN020 OVC035
     FM030800 24004KT P6SM VCSH BKN015 OVC025=

USA.gov is the U.S. government's official web portal to all federal, state and local government web resources and services.